createdAt,value
2022-08-21T00:00:48.661Z,97740.63
2022-08-21T00:03:53.563Z,97736.38
2022-08-21T00:07:03.462Z,97737.09
2022-08-21T00:10:12.728Z,97743.81
2022-08-21T00:13:22.722Z,97733.13
2022-08-21T00:16:32.816Z,97741.84
2022-08-21T00:19:35.264Z,97738.00
2022-08-21T00:22:43.883Z,97732.88
2022-08-21T00:25:47.187Z,97736.56
2022-08-21T00:28:58.962Z,97729.56
2022-08-21T00:32:01.160Z,97732.81
2022-08-21T00:35:09.725Z,97733.53
2022-08-21T00:38:12.254Z,97733.19
2022-08-21T00:41:37.687Z,97735.59
2022-08-21T00:44:53.673Z,97742.69
2022-08-21T00:48:03.834Z,97747.03
2022-08-21T00:51:14.081Z,97738.41
2022-08-21T00:54:23.863Z,97741.19
2022-08-21T00:57:35.023Z,97747.09
2022-08-21T01:00:46.769Z,97753.91
2022-08-21T01:03:50.150Z,97752.78
2022-08-21T01:06:59.727Z,97756.44
2022-08-21T01:10:02.081Z,97762.34
2022-08-21T01:13:12.880Z,97756.38
2022-08-21T01:16:18.026Z,97763.75
2022-08-21T01:19:28.879Z,97773.03
2022-08-21T01:22:31.162Z,97771.00
2022-08-21T01:25:40.847Z,97771.16
2022-08-21T01:28:49.120Z,97774.72
2022-08-21T01:31:57.825Z,97784.06
2022-08-21T01:35:01.713Z,97783.66
2022-08-21T01:38:10.724Z,97790.06
2022-08-21T01:41:13.000Z,97794.16
2022-08-21T01:44:23.032Z,97794.97
2022-08-21T01:47:38.661Z,97804.31
2022-08-21T01:50:49.209Z,97803.53
2022-08-21T01:53:59.104Z,97807.22
2022-08-21T01:57:08.832Z,97807.91
2022-08-21T02:00:22.726Z,97804.41
2022-08-21T02:03:35.609Z,97815.34
2022-08-21T02:06:38.094Z,97819.75
2022-08-21T02:09:46.885Z,97820.53
2022-08-21T02:12:56.080Z,97822.09
2022-08-21T02:15:58.882Z,97822.38
2022-08-21T02:19:07.823Z,97826.09
2022-08-21T02:22:10.101Z,97832.81
2022-08-21T02:25:18.729Z,97828.13
2022-08-21T02:28:30.703Z,97828.94
2022-08-21T02:31:34.558Z,97834.09
2022-08-21T02:34:43.815Z,97831.66
2022-08-21T02:37:55.581Z,97834.34
2022-08-21T02:41:06.720Z,97843.13
2022-08-21T02:44:08.920Z,97840.78
2022-08-21T02:47:17.786Z,97842.69
2022-08-21T02:50:25.066Z,97843.06
2022-08-21T02:53:36.838Z,97848.69
2022-08-21T02:56:45.729Z,97846.94
2022-08-21T02:59:49.075Z,97847.59
2022-08-21T03:02:59.100Z,97850.19
2022-08-21T03:06:02.093Z,97845.56
2022-08-21T03:09:10.823Z,97848.34
2022-08-21T03:12:14.110Z,97848.16
2022-08-21T03:15:26.826Z,97850.63
2022-08-21T03:18:30.125Z,97854.03
2022-08-21T03:21:38.830Z,97857.38
2022-08-21T03:24:42.908Z,97857.97
2022-08-21T03:27:46.810Z,97851.66
2022-08-21T03:30:53.097Z,97861.25
2022-08-21T03:34:03.704Z,97859.19
2022-08-21T03:37:09.904Z,97858.19
2022-08-21T03:40:21.692Z,97858.44
2022-08-21T03:43:23.963Z,97862.97
2022-08-21T03:46:38.700Z,97863.28
2022-08-21T03:49:48.870Z,97863.81
2022-08-21T03:52:51.174Z,97863.00
2022-08-21T03:56:00.823Z,97871.78
2022-08-21T03:59:04.660Z,97868.63
2022-08-21T04:02:15.725Z,97872.59
2022-08-21T04:05:38.151Z,97871.00
2022-08-21T04:08:46.829Z,97869.81
2022-08-21T04:11:49.400Z,97870.63
2022-08-21T04:15:01.830Z,97870.28
2022-08-21T04:18:04.093Z,97881.88
2022-08-21T04:21:13.725Z,97875.91
2022-08-21T04:24:24.821Z,97876.66
2022-08-21T04:27:31.904Z,97881.03
2022-08-21T04:30:41.862Z,97878.28
2022-08-21T04:33:44.026Z,97879.09
2022-08-21T04:36:53.727Z,97868.28
2022-08-21T04:39:58.504Z,97881.44
2022-08-21T04:43:11.878Z,97881.84
2022-08-21T04:46:14.080Z,97878.22
2022-08-21T04:49:28.733Z,97872.97
2022-08-21T04:52:31.439Z,97880.63
2022-08-21T04:55:41.758Z,97880.25
2022-08-21T04:58:46.073Z,97871.88
2022-08-21T05:01:55.870Z,97873.44
2022-08-21T05:05:00.180Z,97869.28
2022-08-21T05:08:09.715Z,97874.03
2022-08-21T05:11:13.297Z,97869.16
2022-08-21T05:14:21.737Z,97863.22
2022-08-21T05:17:25.521Z,97868.13
2022-08-21T05:20:44.810Z,97878.03
2022-08-21T05:23:53.806Z,97867.66
2022-08-21T05:27:03.975Z,97873.88
2022-08-21T05:30:07.093Z,97869.75
2022-08-21T05:33:18.812Z,97867.06
2022-08-21T05:36:21.363Z,97862.28
2022-08-21T05:39:29.826Z,97868.72
2022-08-21T05:43:03.795Z,97870.59
2022-08-21T05:46:06.338Z,97871.84
2022-08-21T05:49:14.807Z,97869.06
2022-08-21T05:52:35.943Z,97869.47
2022-08-21T05:55:44.271Z,97863.91
2022-08-21T05:58:54.923Z,97873.88
2022-08-21T06:01:57.007Z,97863.75
2022-08-21T06:05:05.745Z,97861.75
2022-08-21T06:08:07.911Z,97863.59
2022-08-21T06:11:20.780Z,97853.19
2022-08-21T06:14:22.938Z,97849.41
2022-08-21T06:17:31.821Z,97853.34
2022-08-21T06:20:40.816Z,97843.91
2022-08-21T06:23:44.076Z,97849.22
2022-08-21T06:26:52.711Z,97849.19
2022-08-21T06:30:01.715Z,97838.28
2022-08-21T06:33:05.098Z,97830.56
2022-08-21T06:36:13.810Z,97842.50
2022-08-21T06:39:25.535Z,97840.31
2022-08-21T06:42:34.168Z,97841.03
2022-08-21T06:45:43.818Z,97835.53
2022-08-21T06:48:46.110Z,97837.97
2022-08-21T06:52:01.886Z,97828.75
2022-08-21T06:55:03.950Z,97828.59
2022-08-21T06:58:12.797Z,97827.69
2022-08-21T07:01:21.834Z,97819.41
2022-08-21T07:04:27.119Z,97814.00
2022-08-21T07:07:35.801Z,97808.63
2022-08-21T07:10:38.306Z,97809.03
2022-08-21T07:13:47.710Z,97811.16
2022-08-21T07:16:57.635Z,97802.81
2022-08-21T07:20:00.920Z,97796.91
2022-08-21T07:23:11.825Z,97789.88
2022-08-21T07:26:16.135Z,97784.94
2022-08-21T07:29:24.736Z,97786.56
2022-08-21T07:32:33.808Z,97784.81
2022-08-21T07:35:36.079Z,97793.56
2022-08-21T07:38:46.584Z,97788.41
2022-08-21T07:41:55.699Z,97783.34
2022-08-21T07:44:58.369Z,97782.94
2022-08-21T07:48:07.796Z,97773.63
2022-08-21T07:51:20.133Z,97769.22
2022-08-21T07:54:33.293Z,97764.09
2022-08-21T07:57:36.141Z,97766.38
2022-08-21T08:00:45.728Z,97758.53
2022-08-21T08:03:48.552Z,97758.03
2022-08-21T08:06:58.784Z,97758.25
2022-08-21T08:10:00.912Z,97750.47
2022-08-21T08:13:10.816Z,97738.78
2022-08-21T08:16:13.262Z,97727.59
2022-08-21T08:19:21.893Z,97726.94
2022-08-21T08:22:26.057Z,97731.72
2022-08-21T08:25:37.051Z,97731.63
2022-08-21T08:28:50.726Z,97723.28
2022-08-21T08:31:59.874Z,97710.47
2022-08-21T08:35:02.211Z,97715.34
2022-08-21T08:38:13.871Z,97712.34
2022-08-21T08:41:30.613Z,97705.72
2022-08-21T08:44:39.797Z,97692.41
2022-08-21T08:47:53.725Z,97690.00
2022-08-21T08:51:07.714Z,97689.75
2022-08-21T08:54:22.102Z,97681.56
2022-08-21T08:57:04.754Z,97678.59
2022-08-21T08:59:48.898Z,97669.75
2022-08-21T09:02:37.862Z,97664.19
2022-08-21T09:05:46.687Z,97663.88
2022-08-21T09:09:09.753Z,97651.56
2022-08-21T09:12:06.721Z,97654.34
2022-08-21T09:15:27.191Z,97652.31
2022-08-21T09:18:33.736Z,97640.50
2022-08-21T09:21:41.000Z,97641.75
2022-08-21T09:24:51.713Z,97634.59
2022-08-21T09:27:34.114Z,97628.94
2022-08-21T09:30:22.831Z,97622.56
2022-08-21T09:33:11.729Z,97614.44
2022-08-21T09:36:02.807Z,97618.03
2022-08-21T09:38:53.792Z,97608.53
2022-08-21T09:41:40.131Z,97610.94
2022-08-21T09:44:28.824Z,97603.22
2022-08-21T09:47:19.095Z,97600.31
2022-08-21T09:50:00.855Z,97594.63
2022-08-21T09:53:06.685Z,97593.59
2022-08-21T09:56:37.803Z,97593.16
2022-08-21T09:59:43.654Z,97583.72
2022-08-21T10:02:47.799Z,97582.44
2022-08-21T10:05:30.371Z,97573.84
2022-08-21T10:08:18.802Z,97563.44
2022-08-21T10:11:18.752Z,97572.00
2022-08-21T10:14:12.815Z,97569.91
2022-08-21T10:17:16.732Z,97567.41
2022-08-21T10:20:17.823Z,97563.53
2022-08-21T10:23:23.980Z,97554.28
2022-08-21T10:26:46.815Z,97542.63
2022-08-21T10:30:00.711Z,97541.13
2022-08-21T10:33:02.725Z,97537.63
2022-08-21T10:36:02.175Z,97535.25
2022-08-21T10:39:07.039Z,97537.88
2022-08-21T10:42:19.542Z,97522.72
2022-08-21T10:45:30.812Z,97522.75
2022-08-21T10:48:24.093Z,97523.59
2022-08-21T10:51:36.855Z,97514.53
2022-08-21T10:54:53.118Z,97511.00
2022-08-21T10:57:40.893Z,97513.63
2022-08-21T11:01:06.732Z,97505.94
2022-08-21T11:04:09.763Z,97513.19
2022-08-21T11:07:21.071Z,97519.47
2022-08-21T11:10:06.724Z,97519.00
2022-08-21T11:12:57.013Z,97492.31
2022-08-21T11:16:15.823Z,97504.00
2022-08-21T11:19:32.012Z,97507.97
2022-08-21T11:22:22.815Z,97506.41
2022-08-21T11:25:23.096Z,97516.75
2022-08-21T11:28:14.838Z,97504.16
2022-08-21T11:31:21.841Z,97494.94
2022-08-21T11:34:16.015Z,97500.13
2022-08-21T11:37:40.728Z,97499.13
2022-08-21T11:40:44.117Z,97497.94
2022-08-21T11:43:53.744Z,97498.75
2022-08-21T11:47:14.807Z,97481.72
2022-08-21T11:50:37.816Z,97484.34
2022-08-21T11:53:44.989Z,97483.50
2022-08-21T11:56:53.754Z,97476.09
2022-08-21T11:59:52.089Z,97485.25
2022-08-21T12:02:42.868Z,97485.88
2022-08-21T12:05:51.652Z,97483.94
2022-08-21T12:08:43.797Z,97481.38
2022-08-21T12:11:32.738Z,97478.06
2022-08-21T12:14:24.719Z,97479.06
2022-08-21T12:17:18.580Z,97477.28
2022-08-21T12:20:32.731Z,97471.78
2022-08-21T12:23:21.097Z,97469.75
2022-08-21T12:26:19.768Z,97472.19
2022-08-21T12:29:25.206Z,97471.53
2022-08-21T12:32:32.711Z,97471.13
2022-08-21T12:35:54.785Z,97466.88
2022-08-21T12:39:12.076Z,97461.59
2022-08-21T12:42:02.822Z,97462.38
2022-08-21T12:45:03.105Z,97464.28
2022-08-21T12:48:00.720Z,97474.03
2022-08-21T12:50:58.652Z,97471.69
2022-08-21T12:54:07.809Z,97475.63
2022-08-21T12:57:12.103Z,97473.97
2022-08-21T12:59:54.844Z,97481.66
2022-08-21T13:02:53.739Z,97480.31
2022-08-21T13:05:51.653Z,97487.47
2022-08-21T13:08:50.810Z,97490.63
2022-08-21T13:11:34.869Z,97497.44
2022-08-21T13:14:35.756Z,97489.56
2022-08-21T13:17:36.182Z,97495.41
2022-08-21T13:20:41.852Z,97499.81
2022-08-21T13:23:35.241Z,97496.28
2022-08-21T13:26:28.884Z,97501.56
2022-08-21T13:29:14.990Z,97497.53
2022-08-21T13:32:15.786Z,97501.56
2022-08-21T13:35:04.773Z,97496.78
2022-08-21T13:37:50.776Z,97500.41
2022-08-21T13:40:48.853Z,97504.41
2022-08-21T13:43:36.133Z,97510.41
2022-08-21T13:46:26.864Z,97509.56
2022-08-21T13:49:11.906Z,97505.59
2022-08-21T13:52:00.817Z,97515.16
2022-08-21T13:54:49.057Z,97504.84
2022-08-21T13:57:40.718Z,97511.59
2022-08-21T14:00:38.498Z,97522.78
2022-08-21T14:03:51.849Z,97521.97
2022-08-21T14:06:51.711Z,97532.75
2022-08-21T14:09:58.809Z,97533.53
2022-08-21T14:12:53.185Z,97532.75
2022-08-21T14:15:38.864Z,97522.41
2022-08-21T14:18:21.935Z,97523.19
2022-08-21T14:21:24.967Z,97528.78
2022-08-21T14:24:58.508Z,97524.38
2022-08-21T14:27:43.829Z,97531.53
2022-08-21T14:30:44.472Z,97542.28
2022-08-21T14:33:43.183Z,97543.91
2022-08-21T14:36:31.083Z,97539.53
2022-08-21T14:39:19.863Z,97544.69
2022-08-21T14:42:11.846Z,97557.41
2022-08-21T14:44:58.072Z,97541.09
2022-08-21T14:47:48.911Z,97549.06
2022-08-21T14:50:34.184Z,97542.31
2022-08-21T14:53:30.768Z,97551.47
2022-08-21T14:56:14.044Z,97553.03
2022-08-21T14:59:04.930Z,97553.47
2022-08-21T15:01:54.913Z,97557.03
2022-08-21T15:04:37.722Z,97556.63
2022-08-21T15:07:34.970Z,97555.03
2022-08-21T15:10:25.880Z,97565.38
2022-08-21T15:13:16.952Z,97569.34
2022-08-21T15:16:07.221Z,97566.56
2022-08-21T15:18:50.910Z,97564.97
2022-08-21T15:21:40.061Z,97569.34
2022-08-21T15:24:22.828Z,97574.09
2022-08-21T15:27:16.749Z,97571.31
2022-08-21T15:30:00.601Z,97564.94
2022-08-21T15:32:50.812Z,97567.31
2022-08-21T15:35:34.240Z,97566.13
2022-08-21T15:38:24.917Z,97566.13
2022-08-21T15:41:15.929Z,97566.91
2022-08-21T15:44:00.053Z,97562.94
2022-08-21T15:46:49.892Z,97570.13
2022-08-21T15:49:41.350Z,97567.69
2022-08-21T15:52:27.893Z,97570.84
2022-08-21T15:55:20.730Z,97572.44
2022-08-21T15:58:05.907Z,97575.63
2022-08-21T16:00:49.113Z,97578.38
2022-08-21T16:03:37.955Z,97577.19
2022-08-21T16:06:38.597Z,97581.16
2022-08-21T16:09:37.761Z,97586.72
2022-08-21T16:12:41.811Z,97577.56
2022-08-21T16:15:37.815Z,97583.91
2022-08-21T16:18:34.783Z,97578.78
2022-08-21T16:21:30.896Z,97586.28
2022-08-21T16:24:13.144Z,97581.56
2022-08-21T16:27:03.827Z,97587.84
2022-08-21T16:29:50.591Z,97587.47
2022-08-21T16:32:39.863Z,97586.28
2022-08-21T16:35:23.581Z,97586.28
2022-08-21T16:38:12.843Z,97592.22
2022-08-21T16:40:55.389Z,97589.88
2022-08-21T16:43:45.830Z,97597.00
2022-08-21T16:46:36.145Z,97593.00
2022-08-21T16:49:17.846Z,97593.78
2022-08-21T16:52:06.856Z,97586.59
2022-08-21T16:54:49.230Z,97587.38
2022-08-21T16:57:40.911Z,97581.84
2022-08-21T17:00:29.873Z,97577.50
2022-08-21T17:03:19.811Z,97586.66
2022-08-21T17:06:10.411Z,97575.59
2022-08-21T17:09:01.653Z,97575.22
2022-08-21T17:11:56.843Z,97573.25
2022-08-21T17:14:39.194Z,97578.44
2022-08-21T17:17:28.983Z,97572.47
2022-08-21T17:20:24.745Z,97578.41
2022-08-21T17:23:19.943Z,97578.84
2022-08-21T17:26:15.636Z,97575.66
2022-08-21T17:29:04.810Z,97572.84
2022-08-21T17:31:48.975Z,97576.41
2022-08-21T17:34:37.823Z,97571.59
2022-08-21T17:37:20.165Z,97564.53
2022-08-21T17:40:08.738Z,97568.50
2022-08-21T17:43:00.896Z,97571.66
2022-08-21T17:45:51.801Z,97574.84
2022-08-21T17:48:34.063Z,97561.34
2022-08-21T17:51:25.844Z,97562.16
2022-08-21T17:54:08.111Z,97564.91
2022-08-21T17:56:57.747Z,97565.31
2022-08-21T17:59:41.154Z,97562.13
2022-08-21T18:02:30.847Z,97562.91
2022-08-21T18:05:16.659Z,97556.94
2022-08-21T18:08:05.880Z,97552.56
2022-08-21T18:10:51.318Z,97547.41
2022-08-21T18:13:44.736Z,97548.59
2022-08-21T18:16:34.808Z,97544.63
2022-08-21T18:19:26.334Z,97534.72
2022-08-21T18:22:08.830Z,97538.25
2022-08-21T18:25:05.650Z,97533.88
2022-08-21T18:28:02.791Z,97537.06
2022-08-21T18:30:52.073Z,97531.91
2022-08-21T18:33:33.845Z,97526.75
2022-08-21T18:36:22.106Z,97523.19
2022-08-21T18:39:32.728Z,97527.91
2022-08-21T18:42:18.128Z,97525.56
2022-08-21T18:45:07.833Z,97535.88
2022-08-21T18:48:00.066Z,97537.47
2022-08-21T18:50:44.705Z,97541.41
2022-08-21T18:53:36.814Z,97530.31
2022-08-21T18:56:21.285Z,97534.69
2022-08-21T18:59:11.825Z,97529.53
2022-08-21T19:01:54.375Z,97528.78
2022-08-21T19:04:45.178Z,97528.78
2022-08-21T19:07:27.110Z,97520.03
2022-08-21T19:10:27.384Z,97520.38
2022-08-21T19:13:18.719Z,97516.03
2022-08-21T19:16:09.617Z,97509.66
2022-08-21T19:18:52.727Z,97509.63
2022-08-21T19:21:42.024Z,97506.84
2022-08-21T19:24:26.389Z,97511.22
2022-08-21T19:27:34.039Z,97511.25
2022-08-21T19:30:22.902Z,97499.34
2022-08-21T19:33:05.229Z,97496.16
2022-08-21T19:35:57.882Z,97493.00
2022-08-21T19:38:40.230Z,97495.34
2022-08-21T19:41:30.902Z,97485.81
2022-08-21T19:44:16.072Z,97491.38
2022-08-21T19:47:07.849Z,97492.16
2022-08-21T19:49:57.348Z,97487.78
2022-08-21T19:52:51.412Z,97484.25
2022-08-21T19:55:40.168Z,97483.84
2022-08-21T19:58:50.030Z,97486.16
2022-08-21T20:01:40.932Z,97483.38
2022-08-21T20:04:24.196Z,97473.81
2022-08-21T20:07:15.856Z,97473.47
2022-08-21T20:10:07.556Z,97469.53
2022-08-21T20:13:03.735Z,97469.13
2022-08-21T20:15:46.475Z,97466.34
2022-08-21T20:18:35.655Z,97460.34
2022-08-21T20:21:24.971Z,97456.34
2022-08-21T20:24:08.838Z,97458.41
2022-08-21T20:26:51.335Z,97460.34
2022-08-21T20:29:46.743Z,97461.09
2022-08-21T20:32:44.826Z,97465.91
2022-08-21T20:35:34.637Z,97465.09
2022-08-21T20:38:17.116Z,97466.66
2022-08-21T20:41:09.966Z,97460.75
2022-08-21T20:44:05.043Z,97473.09
2022-08-21T20:46:53.734Z,97470.25
2022-08-21T20:49:49.762Z,97464.31
2022-08-21T20:52:42.723Z,97467.47
2022-08-21T20:55:29.573Z,97455.97
2022-08-21T20:58:46.640Z,97458.34
2022-08-21T21:01:31.018Z,97452.78
2022-08-21T21:04:40.768Z,97460.31
2022-08-21T21:07:32.173Z,97456.72
2022-08-21T21:10:30.743Z,97451.19
2022-08-21T21:13:31.837Z,97450.75
2022-08-21T21:16:40.949Z,97449.22
2022-08-21T21:19:54.196Z,97455.19
2022-08-21T21:22:52.770Z,97447.19
2022-08-21T21:25:54.257Z,97456.28
2022-08-21T21:28:56.894Z,97457.94
2022-08-21T21:31:46.851Z,97455.16
2022-08-21T21:34:32.097Z,97453.13
2022-08-21T21:37:38.732Z,97451.16
2022-08-21T21:40:45.823Z,97450.75
2022-08-21T21:43:54.009Z,97442.00
2022-08-21T21:47:06.710Z,97443.56
2022-08-21T21:50:26.863Z,97436.03
2022-08-21T21:53:36.095Z,97441.97
2022-08-21T21:56:36.833Z,97443.16
2022-08-21T21:59:38.453Z,97441.97
2022-08-21T22:02:34.873Z,97447.06
2022-08-21T22:08:50.760Z,97439.88
2022-08-21T22:12:02.050Z,97445.03
2022-08-21T22:14:49.830Z,97437.91
2022-08-21T22:17:54.140Z,97446.66
2022-08-21T22:20:48.820Z,97439.47
2022-08-21T22:23:43.834Z,97440.59
2022-08-21T22:26:29.094Z,97437.44
2022-08-21T22:29:26.768Z,97436.28
2022-08-21T22:32:24.668Z,97444.28
2022-08-21T22:35:21.855Z,97445.03
2022-08-21T22:38:07.086Z,97447.31
2022-08-21T22:40:55.824Z,97438.59
2022-08-21T22:43:38.139Z,97432.94
2022-08-21T22:46:52.819Z,97431.84
2022-08-21T22:53:15.920Z,97433.38
2022-08-21T22:56:07.137Z,97433.78
2022-08-21T22:59:05.835Z,97429.03
2022-08-21T23:01:53.132Z,97434.59
2022-08-21T23:04:41.863Z,97437.75
2022-08-21T23:07:50.212Z,97427.31
2022-08-21T23:10:56.827Z,97428.94
2022-08-21T23:13:49.052Z,97427.28
2022-08-21T23:16:47.351Z,97427.31
2022-08-21T23:19:40.053Z,97426.50
2022-08-21T23:22:47.813Z,97430.09
2022-08-21T23:25:54.009Z,97429.69
2022-08-21T23:28:54.738Z,97415.41
2022-08-21T23:32:12.679Z,97422.53
2022-08-21T23:35:55.828Z,97412.22
2022-08-21T23:39:02.141Z,97414.56
2022-08-21T23:41:59.793Z,97413.75
2022-08-21T23:45:17.367Z,97420.06
2022-08-21T23:48:37.738Z,97416.50
2022-08-21T23:51:43.939Z,97420.09
2022-08-21T23:54:52.119Z,97429.59
2022-08-21T23:58:04.855Z,97421.69
